createdAt,value
2017-02-08T00:00:24.513Z,924.77
2017-02-08T00:00:44.252Z,924.79
2017-02-08T00:01:03.987Z,924.74
2017-02-08T00:01:23.112Z,924.71
2017-02-08T00:01:42.829Z,924.72
2017-02-08T00:02:02.529Z,924.73
2017-02-08T00:02:21.634Z,924.71
2017-02-08T00:02:41.327Z,924.7
2017-02-08T00:03:01.028Z,924.71
2017-02-08T00:03:20.730Z,924.7
2017-02-08T00:03:40.439Z,924.66
2017-02-08T00:03:59.548Z,924.7
2017-02-08T00:04:19.296Z,924.71
2017-02-08T00:04:39.038Z,924.68
2017-02-08T00:04:58.771Z,924.73
2017-02-08T00:05:18.090Z,924.75
2017-02-08T00:05:37.819Z,924.69
2017-02-08T00:05:56.946Z,924.7
2017-02-08T00:06:16.679Z,924.59
2017-02-08T00:06:36.409Z,924.76
2017-02-08T00:06:56.116Z,924.7
2017-02-08T00:07:15.969Z,924.73
2017-02-08T00:07:35.658Z,924.71
2017-02-08T00:07:55.340Z,924.69
2017-02-08T00:08:15.048Z,924.67
2017-02-08T00:08:34.162Z,924.67
2017-02-08T00:08:53.880Z,924.74
2017-02-08T00:09:13.580Z,924.79
2017-02-08T00:09:33.300Z,924.78
2017-02-08T00:09:53.016Z,924.69
2017-02-08T00:10:12.732Z,924.74
2017-02-08T00:10:32.439Z,924.76
2017-02-08T00:10:52.148Z,924.76
2017-02-08T00:11:11.896Z,924.67
2017-02-08T00:11:31.023Z,924.74
2017-02-08T00:11:50.745Z,924.74
2017-02-08T00:12:09.859Z,924.72
2017-02-08T00:12:29.177Z,924.75
2017-02-08T00:12:48.870Z,924.71
2017-02-08T00:13:08.565Z,924.72
2017-02-08T00:13:27.693Z,924.76
2017-02-08T00:13:47.425Z,924.74
2017-02-08T00:14:07.146Z,924.74
2017-02-08T00:14:26.292Z,924.79
2017-02-08T00:14:45.999Z,924.77
2017-02-08T00:15:05.697Z,924.75
2017-02-08T00:15:24.832Z,924.75
2017-02-08T00:15:44.560Z,924.76
2017-02-08T00:16:04.270Z,924.76
2017-02-08T00:16:22.187Z,924.79
2017-02-08T00:16:41.881Z,924.78
2017-02-08T00:17:01.002Z,924.81
2017-02-08T00:17:20.764Z,924.8
2017-02-08T00:17:40.425Z,924.8
2017-02-08T00:18:00.147Z,924.81
2017-02-08T00:18:19.273Z,924.85
2017-02-08T00:18:38.953Z,924.83
2017-02-08T00:18:58.699Z,924.78
2017-02-08T00:19:17.786Z,924.83
2017-02-08T00:19:37.514Z,924.78
2017-02-08T00:19:57.210Z,924.65
2017-02-08T00:20:16.331Z,924.78
2017-02-08T00:20:36.070Z,924.78
2017-02-08T00:20:55.808Z,924.81
2017-02-08T00:21:15.520Z,924.81
2017-02-08T00:21:33.983Z,924.83
2017-02-08T00:21:53.681Z,924.8
2017-02-08T00:22:13.435Z,924.83
2017-02-08T00:22:33.137Z,924.88
2017-02-08T00:22:52.910Z,924.83
2017-02-08T00:23:12.670Z,924.84
2017-02-08T00:23:32.440Z,924.82
2017-02-08T00:23:52.136Z,924.84
2017-02-08T00:24:11.908Z,924.84
2017-02-08T00:24:31.638Z,924.88
2017-02-08T00:24:51.435Z,924.89
2017-02-08T00:25:11.166Z,924.93
2017-02-08T00:25:30.268Z,924.91
2017-02-08T00:25:49.979Z,924.88
2017-02-08T00:26:09.734Z,924.9
2017-02-08T00:26:28.861Z,924.87
2017-02-08T00:26:48.591Z,924.91
2017-02-08T00:27:08.297Z,924.92
2017-02-08T00:27:27.979Z,924.92
2017-02-08T00:27:47.641Z,924.94
2017-02-08T00:28:07.334Z,924.86
2017-02-08T00:28:27.041Z,924.86
2017-02-08T00:28:46.794Z,924.89
2017-02-08T00:29:06.508Z,924.91
2017-02-08T00:29:25.629Z,924.91
2017-02-08T00:29:45.374Z,924.91
2017-02-08T00:30:05.059Z,924.96
2017-02-08T00:30:24.191Z,924.96
2017-02-08T00:30:43.904Z,924.92
2017-02-08T00:31:03.610Z,924.98
2017-02-08T00:31:23.285Z,924.97
2017-02-08T00:31:43.005Z,924.99
2017-02-08T00:32:02.698Z,924.97
2017-02-08T00:32:22.517Z,924.99
2017-02-08T00:32:42.248Z,924.99
2017-02-08T00:33:00.762Z,924.98
2017-02-08T00:33:20.476Z,924.97
2017-02-08T00:33:40.183Z,924.96
2017-02-08T00:33:59.934Z,924.99
2017-02-08T00:34:19.661Z,924.95
2017-02-08T00:34:39.434Z,924.92
2017-02-08T00:34:59.211Z,924.9
2017-02-08T00:35:19.071Z,924.87
2017-02-08T00:35:38.811Z,924.89
2017-02-08T00:35:58.529Z,924.89
2017-02-08T00:36:17.612Z,924.94
2017-02-08T00:36:36.756Z,924.95
2017-02-08T00:36:56.475Z,924.96
2017-02-08T00:37:16.200Z,924.91
2017-02-08T00:37:35.307Z,924.93
2017-02-08T00:37:55.076Z,924.93
2017-02-08T00:38:14.175Z,924.93
2017-02-08T00:38:33.861Z,924.96
2017-02-08T00:38:53.524Z,924.98
2017-02-08T00:39:13.256Z,924.99
2017-02-08T00:39:32.956Z,924.99
2017-02-08T00:39:53.159Z,925.02
2017-02-08T00:40:13.107Z,925.01
2017-02-08T00:40:32.224Z,925.01
2017-02-08T00:40:52.011Z,924.99
2017-02-08T00:41:11.698Z,925.01
2017-02-08T00:41:30.805Z,925.06
2017-02-08T00:41:50.546Z,925.07
2017-02-08T00:42:10.327Z,925.03
2017-02-08T00:42:30.090Z,925.09
2017-02-08T00:42:49.792Z,925.07
2017-02-08T00:43:09.556Z,925.07
2017-02-08T00:43:28.080Z,925.12
2017-02-08T00:43:47.820Z,925.1
2017-02-08T00:44:07.587Z,925.11
2017-02-08T00:44:27.779Z,925.09
2017-02-08T00:44:46.927Z,925.14
2017-02-08T00:45:06.675Z,925.13
2017-02-08T00:45:26.397Z,925.09
2017-02-08T00:45:46.120Z,925.11
2017-02-08T00:46:05.863Z,925.12
2017-02-08T00:46:25.583Z,925.13
2017-02-08T00:46:45.781Z,925.15
2017-02-08T00:47:05.481Z,925.14
2017-02-08T00:47:24.641Z,925.1
2017-02-08T00:47:44.354Z,925.14
2017-02-08T00:48:04.052Z,925.15
2017-02-08T00:48:23.754Z,925.17
2017-02-08T00:48:43.416Z,925.14
2017-02-08T00:49:03.179Z,925.18
2017-02-08T00:49:22.291Z,925.19
2017-02-08T00:49:42.002Z,925.19
2017-02-08T00:50:01.125Z,925.19
2017-02-08T00:50:20.806Z,925.19
2017-02-08T00:50:40.520Z,925.22
2017-02-08T00:51:00.226Z,925.21
2017-02-08T00:51:19.932Z,925.22
2017-02-08T00:51:39.670Z,925.22
2017-02-08T00:51:59.392Z,925.25
2017-02-08T00:52:19.103Z,925.23
2017-02-08T00:52:38.225Z,925.24
2017-02-08T00:52:57.893Z,925.29
2017-02-08T00:53:17.609Z,925.29
2017-02-08T00:53:37.300Z,925.28
2017-02-08T00:53:57.038Z,925.3
2017-02-08T00:54:16.155Z,925.35
2017-02-08T00:54:35.276Z,925.31
2017-02-08T00:54:55.001Z,925.31
2017-02-08T00:55:14.113Z,925.31
2017-02-08T00:55:33.820Z,925.32
2017-02-08T00:55:53.545Z,925.3
2017-02-08T00:56:12.661Z,925.32
2017-02-08T00:56:31.792Z,925.29
2017-02-08T00:56:51.484Z,925.3
2017-02-08T00:57:11.132Z,925.27
2017-02-08T00:57:30.866Z,925.24
2017-02-08T00:57:50.566Z,925.26
2017-02-08T00:58:10.261Z,925.29
2017-02-08T00:58:29.378Z,925.26
2017-02-08T00:58:49.061Z,925.29
2017-02-08T00:59:08.767Z,925.18
2017-02-08T00:59:27.862Z,925.18
2017-02-08T00:59:47.561Z,925.21
2017-02-08T01:00:07.262Z,925.18
2017-02-08T01:00:26.969Z,925.14
2017-02-08T01:00:46.667Z,925.19
2017-02-08T01:01:05.768Z,925.17
2017-02-08T01:01:24.887Z,925.23
2017-02-08T01:01:44.587Z,925.16
2017-02-08T01:02:03.736Z,925.23
2017-02-08T01:02:23.450Z,925.19
2017-02-08T01:02:43.164Z,925.25
2017-02-08T01:03:02.881Z,925.21
2017-02-08T01:03:22.011Z,925.25
2017-02-08T01:03:41.740Z,925.3
2017-02-08T01:04:01.429Z,925.24
2017-02-08T01:04:21.123Z,925.22
2017-02-08T01:04:40.853Z,925.23
2017-02-08T01:04:59.983Z,925.24
2017-02-08T01:05:33.598Z,925.21
2017-02-08T01:05:53.291Z,925.23
2017-02-08T01:06:13.034Z,925.22
2017-02-08T01:06:32.749Z,925.23
2017-02-08T01:06:52.490Z,925.24
2017-02-08T01:07:12.296Z,925.22
2017-02-08T01:07:32.025Z,925.22
2017-02-08T01:07:51.760Z,925.24
2017-02-08T01:08:11.584Z,925.2
2017-02-08T01:08:30.686Z,925.22
2017-02-08T01:08:50.391Z,925.15
2017-02-08T01:09:10.147Z,925.13
2017-02-08T01:09:29.886Z,925.09
2017-02-08T01:09:49.006Z,925.13
2017-02-08T01:10:08.778Z,925.17
2017-02-08T01:10:28.564Z,925.17
2017-02-08T01:10:48.302Z,925.13
2017-02-08T01:11:08.012Z,925.11
2017-02-08T01:11:26.572Z,925.14
2017-02-08T01:11:46.313Z,925.2
2017-02-08T01:12:06.061Z,925.17
2017-02-08T01:12:25.205Z,925.22
2017-02-08T01:12:44.949Z,925.18
2017-02-08T01:13:04.690Z,925.22
2017-02-08T01:13:23.793Z,925.2
2017-02-08T01:13:43.485Z,925.24
2017-02-08T01:14:03.197Z,925.15
2017-02-08T01:14:22.966Z,925.21
2017-02-08T01:14:42.082Z,925.13
2017-02-08T01:15:01.762Z,925.17
2017-02-08T01:15:21.471Z,925.23
2017-02-08T01:15:41.239Z,925.22
2017-02-08T01:16:00.996Z,925.2
2017-02-08T01:16:20.203Z,925.24
2017-02-08T01:16:39.899Z,925.2
2017-02-08T01:16:59.606Z,925.19
2017-02-08T01:17:19.426Z,925.22
2017-02-08T01:17:39.114Z,925.25
2017-02-08T01:17:58.759Z,925.21
2017-02-08T01:18:17.853Z,925.22
2017-02-08T01:18:36.961Z,925.15
2017-02-08T01:18:56.668Z,925.17
2017-02-08T01:19:16.396Z,925.15
2017-02-08T01:19:36.143Z,925.23
2017-02-08T01:19:55.271Z,925.25
2017-02-08T01:20:14.956Z,925.21
2017-02-08T01:20:34.646Z,925.23
2017-02-08T01:20:54.382Z,925.16
2017-02-08T01:21:14.095Z,925.21
2017-02-08T01:21:33.840Z,925.22
2017-02-08T01:21:53.581Z,925.26
2017-02-08T01:22:12.119Z,925.24
2017-02-08T01:22:31.908Z,925.22
2017-02-08T01:22:51.615Z,925.27
2017-02-08T01:23:11.417Z,925.24
2017-02-08T01:23:30.593Z,925.26
2017-02-08T01:23:50.349Z,925.25
2017-02-08T01:24:10.075Z,925.28
2017-02-08T01:24:29.787Z,925.25
2017-02-08T01:24:48.884Z,925.25
2017-02-08T01:25:08.781Z,925.21
2017-02-08T01:25:28.555Z,925.25
2017-02-08T01:25:48.280Z,925.23
2017-02-08T01:26:08.036Z,925.18
2017-02-08T01:26:27.180Z,925.25
2017-02-08T01:26:46.906Z,925.2
2017-02-08T01:27:06.606Z,925.23
2017-02-08T01:27:26.314Z,925.21
2017-02-08T01:27:46.021Z,925.2
2017-02-08T01:28:05.770Z,925.2
2017-02-08T01:28:25.470Z,925.21
2017-02-08T01:28:45.269Z,925.26
2017-02-08T01:29:05.023Z,925.22
2017-02-08T01:29:24.754Z,925.26
2017-02-08T01:29:44.549Z,925.23
2017-02-08T01:30:03.626Z,925.27
2017-02-08T01:30:22.728Z,925.23
2017-02-08T01:30:42.438Z,925.24
2017-02-08T01:31:02.179Z,925.3
2017-02-08T01:31:21.909Z,925.25
2017-02-08T01:31:41.696Z,925.28
2017-02-08T01:32:01.396Z,925.22
2017-02-08T01:32:21.184Z,925.22
2017-02-08T01:32:40.939Z,925.22
2017-02-08T01:33:00.659Z,925.2
2017-02-08T01:33:20.352Z,925.21
2017-02-08T01:33:40.022Z,925.21
2017-02-08T01:33:59.731Z,925.2
2017-02-08T01:34:19.443Z,925.22
2017-02-08T01:34:39.150Z,925.19
2017-02-08T01:34:58.869Z,925.18
2017-02-08T01:35:18.579Z,925.24
2017-02-08T01:35:38.277Z,925.23
2017-02-08T01:35:58.007Z,925.22
2017-02-08T01:36:17.726Z,925.22
2017-02-08T01:36:37.449Z,925.25
2017-02-08T01:36:57.199Z,925.25
2017-02-08T01:37:16.927Z,925.25
2017-02-08T01:37:36.643Z,925.26
2017-02-08T01:37:55.777Z,925.3
2017-02-08T01:38:14.907Z,925.29
2017-02-08T01:38:34.620Z,925.27
2017-02-08T01:38:53.741Z,925.25
2017-02-08T01:39:13.509Z,925.27
2017-02-08T01:39:33.209Z,925.22
2017-02-08T01:39:52.913Z,925.29
2017-02-08T01:40:12.797Z,925.26
2017-02-08T01:40:32.511Z,925.28
2017-02-08T01:40:52.254Z,925.27
2017-02-08T01:41:11.955Z,925.29
2017-02-08T01:41:31.687Z,925.24
2017-02-08T01:41:51.452Z,925.31
2017-02-08T01:42:25.040Z,925.32
2017-02-08T01:42:44.763Z,925.31
2017-02-08T01:43:04.560Z,925.29
2017-02-08T01:43:23.720Z,925.27
2017-02-08T01:43:43.636Z,925.29
2017-02-08T01:44:03.340Z,925.26
2017-02-08T01:44:23.027Z,925.25
2017-02-08T01:44:42.142Z,925.34
2017-02-08T01:45:01.819Z,925.37
2017-02-08T01:45:21.720Z,925.33
2017-02-08T01:45:40.834Z,925.36
2017-02-08T01:46:00.210Z,925.37
2017-02-08T01:46:19.960Z,925.43
2017-02-08T01:46:39.680Z,925.39
2017-02-08T01:46:59.385Z,925.4
2017-02-08T01:47:19.103Z,925.42
2017-02-08T01:47:38.253Z,925.45
2017-02-08T01:47:57.372Z,925.46
2017-02-08T01:48:17.123Z,925.46
2017-02-08T01:48:36.796Z,925.45
2017-02-08T01:48:56.472Z,925.42
2017-02-08T01:49:16.176Z,925.44
2017-02-08T01:49:35.874Z,925.44
2017-02-08T01:49:55.575Z,925.48
2017-02-08T01:50:14.757Z,925.47
2017-02-08T01:50:34.493Z,925.53
2017-02-08T01:50:54.243Z,925.51
2017-02-08T01:51:14.024Z,925.52
2017-02-08T01:51:33.758Z,925.49
2017-02-08T01:51:53.490Z,925.49
2017-02-08T01:52:12.625Z,925.53
2017-02-08T01:52:32.450Z,925.51
2017-02-08T01:52:52.229Z,925.49
2017-02-08T01:53:11.953Z,925.48
2017-02-08T01:53:31.080Z,925.5
2017-02-08T01:53:50.809Z,925.5
2017-02-08T01:54:10.611Z,925.48
2017-02-08T01:54:30.305Z,925.43
2017-02-08T01:54:50.041Z,925.41
2017-02-08T01:55:09.967Z,925.43
2017-02-08T01:55:29.701Z,925.42
2017-02-08T01:55:49.459Z,925.42
2017-02-08T01:56:10.648Z,925.36
2017-02-08T01:56:29.730Z,925.38
2017-02-08T01:56:49.471Z,925.31
2017-02-08T01:57:09.207Z,925.33
2017-02-08T01:57:28.366Z,925.38
2017-02-08T01:57:48.060Z,925.41
2017-02-08T01:58:07.779Z,925.37
2017-02-08T01:58:27.436Z,925.37
2017-02-08T01:58:47.125Z,925.41
2017-02-08T01:59:06.770Z,925.42
2017-02-08T01:59:26.489Z,925.45
2017-02-08T01:59:46.164Z,925.41
2017-02-08T02:00:05.895Z,925.44
2017-02-08T02:00:24.999Z,925.44
2017-02-08T02:00:44.678Z,925.47
2017-02-08T02:01:03.778Z,925.47
2017-02-08T02:01:23.442Z,925.43
2017-02-08T02:01:43.145Z,925.44
2017-02-08T02:02:02.828Z,925.45
2017-02-08T02:02:22.541Z,925.45
2017-02-08T02:02:42.243Z,925.38
2017-02-08T02:03:01.964Z,925.38
2017-02-08T02:03:21.740Z,925.41
2017-02-08T02:03:41.474Z,925.35
2017-02-08T02:04:00.605Z,925.36
2017-02-08T02:04:20.320Z,925.31
2017-02-08T02:04:39.413Z,925.37
2017-02-08T02:04:59.094Z,925.34
2017-02-08T02:05:18.767Z,925.35
2017-02-08T02:05:38.433Z,925.38
2017-02-08T02:05:58.134Z,925.39
2017-02-08T02:06:17.245Z,925.35
2017-02-08T02:06:36.924Z,925.33
2017-02-08T02:06:56.638Z,925.34
2017-02-08T02:07:16.373Z,925.34
2017-02-08T02:07:36.433Z,925.32
2017-02-08T02:07:56.151Z,925.32
2017-02-08T02:08:14.695Z,925.35
2017-02-08T02:08:34.378Z,925.4
2017-02-08T02:08:54.145Z,925.39
2017-02-08T02:09:13.886Z,925.35
2017-02-08T02:09:32.990Z,925.37
2017-02-08T02:09:52.115Z,925.37
2017-02-08T02:10:11.248Z,925.4
2017-02-08T02:10:30.947Z,925.34
2017-02-08T02:10:50.690Z,925.39
2017-02-08T02:11:10.376Z,925.38
2017-02-08T02:11:30.104Z,925.34
2017-02-08T02:12:03.720Z,925.29
2017-02-08T02:12:23.464Z,925.31
2017-02-08T02:12:43.172Z,925.35
2017-02-08T02:13:02.891Z,925.36
2017-02-08T02:13:22.022Z,925.33
2017-02-08T02:13:41.786Z,925.36
2017-02-08T02:14:01.526Z,925.32
2017-02-08T02:14:20.639Z,925.36
2017-02-08T02:14:40.388Z,925.36
2017-02-08T02:15:00.162Z,925.31
2017-02-08T02:15:19.270Z,925.31
2017-02-08T02:15:39.574Z,925.29
2017-02-08T02:15:59.334Z,925.28
2017-02-08T02:16:17.856Z,925.31
2017-02-08T02:16:36.945Z,925.3
2017-02-08T02:16:56.717Z,925.3
2017-02-08T02:17:15.852Z,925.28
2017-02-08T02:17:35.553Z,925.29
2017-02-08T02:17:55.448Z,925.31
2017-02-08T02:18:15.168Z,925.29
2017-02-08T02:18:34.887Z,925.27
2017-02-08T02:18:54.656Z,925.27
2017-02-08T02:19:13.833Z,925.22
2017-02-08T02:19:33.533Z,925.2
2017-02-08T02:19:53.240Z,925.24
2017-02-08T02:20:12.956Z,925.3
2017-02-08T02:20:32.704Z,925.24
2017-02-08T02:20:52.411Z,925.26
2017-02-08T02:21:12.177Z,925.22
2017-02-08T02:21:30.680Z,925.25
2017-02-08T02:21:50.641Z,925.23
2017-02-08T02:22:10.365Z,925.23
2017-02-08T02:22:30.084Z,925.21
2017-02-08T02:22:49.769Z,925.21
2017-02-08T02:23:09.496Z,925.18
2017-02-08T02:23:28.603Z,925.21
2017-02-08T02:23:48.316Z,925.2
2017-02-08T02:24:08.023Z,925.21
2017-02-08T02:24:27.732Z,925.17
2017-02-08T02:24:47.440Z,925.22
2017-02-08T02:25:07.146Z,925.24
2017-02-08T02:25:26.857Z,925.19
2017-02-08T02:25:46.587Z,925.24
2017-02-08T02:26:06.315Z,925.09
2017-02-08T02:26:26.047Z,925.22
2017-02-08T02:26:45.763Z,925.16
2017-02-08T02:27:05.467Z,925.22
2017-02-08T02:27:25.206Z,925.23
2017-02-08T02:27:44.899Z,925.2
2017-02-08T02:28:04.600Z,925.16
2017-02-08T02:28:23.735Z,925.14
2017-02-08T02:28:42.860Z,925.18
2017-02-08T02:29:02.571Z,925.19
2017-02-08T02:29:22.266Z,925.16
2017-02-08T02:29:41.982Z,925.14
2017-02-08T02:30:01.698Z,925.14
2017-02-08T02:30:21.404Z,925.08
2017-02-08T02:30:40.520Z,925.13
2017-02-08T02:31:00.266Z,925.07
2017-02-08T02:31:19.996Z,925.05
2017-02-08T02:31:39.734Z,925.04
2017-02-08T02:31:59.467Z,925.07
2017-02-08T02:32:19.218Z,925.04
2017-02-08T02:32:38.969Z,925.06
2017-02-08T02:32:58.648Z,925.03
2017-02-08T02:33:32.265Z,925.02
2017-02-08T02:33:51.979Z,925
2017-02-08T02:34:11.682Z,925
2017-02-08T02:34:31.421Z,925.02
2017-02-08T02:34:51.131Z,925
2017-02-08T02:35:10.850Z,925
2017-02-08T02:35:30.567Z,925.01
2017-02-08T02:35:50.284Z,924.99
2017-02-08T02:36:10.003Z,925
2017-02-08T02:36:29.717Z,925
2017-02-08T02:36:48.834Z,924.97
2017-02-08T02:37:08.569Z,924.99
2017-02-08T02:37:28.307Z,924.99
2017-02-08T02:37:48.003Z,925.01
2017-02-08T02:38:07.822Z,924.99
2017-02-08T02:38:26.971Z,924.99
2017-02-08T02:38:46.684Z,924.97
2017-02-08T02:39:06.424Z,925
2017-02-08T02:39:26.159Z,925.06
2017-02-08T02:39:45.882Z,925.01
2017-02-08T02:40:05.626Z,925.03
2017-02-08T02:40:25.488Z,925.03
2017-02-08T02:40:45.256Z,925.02
2017-02-08T02:41:05.012Z,925.03
2017-02-08T02:41:24.733Z,925.04
2017-02-08T02:41:44.527Z,925.06
2017-02-08T02:42:04.273Z,925.03
2017-02-08T02:42:24.061Z,925.06
2017-02-08T02:42:43.215Z,925.05
2017-02-08T02:43:02.930Z,925.06
2017-02-08T02:43:22.038Z,924.95
2017-02-08T02:43:41.734Z,925
2017-02-08T02:44:00.850Z,925.05
2017-02-08T02:44:20.623Z,925.03
2017-02-08T02:44:40.374Z,925.04
2017-02-08T02:45:00.191Z,925
2017-02-08T02:45:19.952Z,924.98
2017-02-08T02:45:39.731Z,925
2017-02-08T02:45:59.434Z,924.99
2017-02-08T02:46:19.142Z,924.98
2017-02-08T02:46:39.310Z,925.06
2017-02-08T02:46:59.042Z,924.98
2017-02-08T02:47:18.916Z,925.03
2017-02-08T02:47:38.650Z,925.04
2017-02-08T02:47:58.343Z,925.04
2017-02-08T02:48:18.074Z,925.03
2017-02-08T02:48:37.803Z,925.02
2017-02-08T02:48:57.593Z,925.05
2017-02-08T02:49:17.319Z,925.01
2017-02-08T02:49:37.108Z,925.04
2017-02-08T02:49:56.175Z,925.07
2017-02-08T02:50:15.275Z,925.06
2017-02-08T02:50:35.109Z,925.09
2017-02-08T02:50:54.797Z,925.06
2017-02-08T02:51:14.603Z,925.05
2017-02-08T02:51:34.303Z,925.07
2017-02-08T02:51:54.021Z,925.08
2017-02-08T02:52:13.731Z,925.1
2017-02-08T02:52:34.003Z,925.06
2017-02-08T02:52:53.091Z,925.05
2017-02-08T02:53:12.859Z,925.09
2017-02-08T02:53:33.061Z,925.1
2017-02-08T02:53:52.769Z,925.02
2017-02-08T02:54:11.902Z,925.03
2017-02-08T02:54:31.597Z,925.07
2017-02-08T02:54:51.438Z,925.06
2017-02-08T02:55:11.169Z,925.07
2017-02-08T02:55:30.897Z,925.05
2017-02-08T02:55:50.725Z,925.07
2017-02-08T02:56:10.428Z,925.06
2017-02-08T02:56:30.162Z,925.1
2017-02-08T02:56:49.855Z,925.08
2017-02-08T02:57:09.582Z,925.06
2017-02-08T02:57:28.740Z,925.1
2017-02-08T02:57:48.498Z,925.08
2017-02-08T02:58:08.241Z,925.08
2017-02-08T02:58:27.989Z,925.07
2017-02-08T02:58:47.902Z,925.06
2017-02-08T02:59:07.013Z,925.1
2017-02-08T02:59:26.772Z,925.05
2017-02-08T02:59:46.509Z,925.13
2017-02-08T03:00:06.253Z,925.06
2017-02-08T03:00:25.342Z,925.07
2017-02-08T03:00:45.069Z,925.08
2017-02-08T03:01:04.760Z,925.1
2017-02-08T03:01:23.856Z,925.04
2017-02-08T03:01:43.563Z,925.03
2017-02-08T03:02:03.246Z,925.02
2017-02-08T03:02:22.373Z,925.02
2017-02-08T03:02:42.093Z,925.07
2017-02-08T03:03:00.630Z,924.97
2017-02-08T03:03:20.317Z,924.99
2017-02-08T03:03:40.029Z,924.96
2017-02-08T03:03:59.781Z,924.93
2017-02-08T03:04:18.922Z,925.01
2017-02-08T03:04:38.035Z,925
2017-02-08T03:04:57.764Z,924.93
2017-02-08T03:05:17.454Z,924.94
2017-02-08T03:05:37.184Z,924.92
2017-02-08T03:05:56.910Z,924.92
2017-02-08T03:06:16.653Z,924.88
2017-02-08T03:06:36.363Z,924.88
2017-02-08T03:06:56.060Z,924.84
2017-02-08T03:07:15.946Z,924.81
2017-02-08T03:07:36.080Z,924.85
2017-02-08T03:07:55.809Z,924.82
2017-02-08T03:08:15.616Z,924.81
2017-02-08T03:08:34.751Z,924.83
2017-02-08T03:08:54.469Z,924.81
2017-02-08T03:09:14.277Z,924.85
2017-02-08T03:09:33.973Z,924.82
2017-02-08T03:09:53.806Z,924.83
2017-02-08T03:10:13.487Z,924.8
2017-02-08T03:10:33.194Z,924.83
2017-02-08T03:10:52.970Z,924.81
2017-02-08T03:11:12.747Z,924.8
2017-02-08T03:11:31.842Z,924.8
2017-02-08T03:11:52.063Z,924.84
2017-02-08T03:12:11.803Z,924.82
2017-02-08T03:12:31.612Z,924.78
2017-02-08T03:12:51.370Z,924.81
2017-02-08T03:13:11.136Z,924.78
2017-02-08T03:13:30.876Z,924.75
2017-02-08T03:13:50.655Z,924.76
2017-02-08T03:14:10.408Z,924.79
2017-02-08T03:14:30.148Z,924.79
2017-02-08T03:14:49.943Z,924.77
2017-02-08T03:15:09.875Z,924.78
2017-02-08T03:15:29.590Z,924.79
2017-02-08T03:15:49.362Z,924.8
2017-02-08T03:16:09.072Z,924.8
2017-02-08T03:16:28.759Z,924.83
2017-02-08T03:16:48.448Z,924.81
2017-02-08T03:17:07.553Z,924.79
2017-02-08T03:17:26.679Z,924.8
2017-02-08T03:17:45.788Z,924.79
2017-02-08T03:18:05.502Z,924.8
2017-02-08T03:18:24.629Z,924.82
2017-02-08T03:18:44.338Z,924.8
2017-02-08T03:19:04.022Z,924.79
2017-02-08T03:19:23.147Z,924.77
2017-02-08T03:19:42.864Z,924.77
2017-02-08T03:20:02.566Z,924.78
2017-02-08T03:20:22.270Z,924.79
2017-02-08T03:20:41.997Z,924.78
2017-02-08T03:21:01.724Z,924.76
2017-02-08T03:21:20.833Z,924.75
2017-02-08T03:21:40.565Z,924.74
2017-02-08T03:22:00.275Z,924.69
2017-02-08T03:22:19.387Z,924.74
2017-02-08T03:22:39.120Z,924.76
2017-02-08T03:22:58.219Z,924.71
2017-02-08T03:23:17.351Z,924.73
2017-02-08T03:23:37.075Z,924.73
2017-02-08T03:23:56.795Z,924.71
2017-02-08T03:24:16.541Z,924.7
2017-02-08T03:24:36.232Z,924.67
2017-02-08T03:24:55.337Z,924.7
2017-02-08T03:25:15.283Z,924.69
2017-02-08T03:25:35.013Z,924.71
2017-02-08T03:25:54.759Z,924.69
2017-02-08T03:26:13.875Z,924.71
2017-02-08T03:26:33.603Z,924.71
2017-02-08T03:26:53.331Z,924.69
2017-02-08T03:27:13.237Z,924.66
2017-02-08T03:27:32.977Z,924.66
2017-02-08T03:27:52.104Z,924.65
2017-02-08T03:28:11.773Z,924.65
2017-02-08T03:28:31.474Z,924.64
2017-02-08T03:28:51.173Z,924.64
2017-02-08T03:29:10.899Z,924.58
2017-02-08T03:29:30.613Z,924.63
2017-02-08T03:29:49.735Z,924.58
2017-02-08T03:30:09.443Z,924.57
2017-02-08T03:30:29.170Z,924.57
2017-02-08T03:30:48.861Z,924.52
2017-02-08T03:31:08.587Z,924.56
2017-02-08T03:31:27.701Z,924.53
2017-02-08T03:31:46.227Z,924.56
2017-02-08T03:32:05.933Z,924.57
2017-02-08T03:32:25.653Z,924.54
2017-02-08T03:32:45.402Z,924.6
2017-02-08T03:33:04.503Z,924.59
2017-02-08T03:33:24.213Z,924.6
2017-02-08T03:33:43.969Z,924.6
2017-02-08T03:34:03.693Z,924.62
2017-02-08T03:34:22.206Z,924.62
2017-02-08T03:34:41.336Z,924.65
2017-02-08T03:35:01.006Z,924.68
2017-02-08T03:35:20.723Z,924.66
2017-02-08T03:35:40.465Z,924.72
2017-02-08T03:36:00.191Z,924.71
2017-02-08T03:36:19.332Z,924.71
2017-02-08T03:36:38.499Z,924.72
2017-02-08T03:36:58.259Z,924.73
2017-02-08T03:37:17.358Z,924.72
2017-02-08T03:37:37.001Z,924.72
2017-02-08T03:37:56.734Z,924.74
2017-02-08T03:38:15.832Z,924.77
2017-02-08T03:38:34.359Z,924.7
2017-02-08T03:38:54.048Z,924.73
2017-02-08T03:39:13.754Z,924.72
2017-02-08T03:39:33.458Z,924.71
2017-02-08T03:39:53.159Z,924.71
2017-02-08T03:40:13.075Z,924.72
2017-02-08T03:40:32.801Z,924.67
2017-02-08T03:40:52.520Z,924.66
2017-02-08T03:41:12.203Z,924.68
2017-02-08T03:41:31.901Z,924.68
2017-02-08T03:41:51.602Z,924.64
2017-02-08T03:42:11.420Z,924.61
2017-02-08T03:42:31.145Z,924.61
2017-02-08T03:42:50.872Z,924.6
2017-02-08T03:43:10.612Z,924.6
2017-02-08T03:43:30.344Z,924.6
2017-02-08T03:43:49.498Z,924.58
2017-02-08T03:44:09.178Z,924.56
2017-02-08T03:44:28.281Z,924.53
2017-02-08T03:44:46.786Z,924.52
2017-02-08T03:45:06.480Z,924.52
2017-02-08T03:45:25.582Z,924.48
2017-02-08T03:45:45.305Z,924.46
2017-02-08T03:46:05.009Z,924.45
2017-02-08T03:46:24.737Z,924.46
2017-02-08T03:46:44.460Z,924.46
2017-02-08T03:47:04.158Z,924.47
2017-02-08T03:47:23.883Z,924.45
2017-02-08T03:47:43.614Z,924.47
2017-02-08T03:48:03.307Z,924.47
2017-02-08T03:48:23.012Z,924.43
2017-02-08T03:48:42.686Z,924.42
2017-02-08T03:49:02.403Z,924.44
2017-02-08T03:49:22.103Z,924.42
2017-02-08T03:49:41.822Z,924.41
2017-02-08T03:50:01.531Z,924.41
2017-02-08T03:50:20.651Z,924.46
2017-02-08T03:50:40.363Z,924.39
2017-02-08T03:51:00.111Z,924.4
2017-02-08T03:51:19.845Z,924.41
2017-02-08T03:51:38.417Z,924.4
2017-02-08T03:51:58.144Z,924.43
2017-02-08T03:52:17.259Z,924.45
2017-02-08T03:52:36.963Z,924.44
2017-02-08T03:52:56.694Z,924.42
2017-02-08T03:53:16.375Z,924.45
2017-02-08T03:53:36.095Z,924.39
2017-02-08T03:53:55.804Z,924.38
2017-02-08T03:54:14.925Z,924.41
2017-02-08T03:54:34.656Z,924.4
2017-02-08T03:54:54.370Z,924.37
2017-02-08T03:55:14.094Z,924.37
2017-02-08T03:55:33.853Z,924.37
2017-02-08T03:55:53.536Z,924.32
2017-02-08T03:56:12.655Z,924.31
2017-02-08T03:56:32.390Z,924.32
2017-02-08T03:56:52.107Z,924.31
2017-02-08T03:57:11.847Z,924.31
2017-02-08T03:57:31.597Z,924.29
2017-02-08T03:57:51.316Z,924.31
2017-02-08T03:58:11.031Z,924.28
2017-02-08T03:58:30.706Z,924.27
2017-02-08T03:58:50.418Z,924.25
2017-02-08T03:59:10.190Z,924.24
2017-02-08T03:59:29.907Z,924.25
2017-02-08T03:59:49.009Z,924.24
2017-02-08T04:00:08.704Z,924.24
2017-02-08T04:00:28.436Z,924.24
2017-02-08T04:00:48.133Z,924.25
2017-02-08T04:01:07.835Z,924.24
2017-02-08T04:01:27.552Z,924.26
2017-02-08T04:01:47.259Z,924.22
2017-02-08T04:02:06.992Z,924.25
2017-02-08T04:02:26.724Z,924.25
2017-02-08T04:02:45.847Z,924.23
2017-02-08T04:03:04.962Z,924.24
2017-02-08T04:03:24.673Z,924.25
2017-02-08T04:03:43.768Z,924.25
2017-02-08T04:04:02.872Z,924.25
2017-02-08T04:04:22.568Z,924.25
2017-02-08T04:04:42.259Z,924.24
2017-02-08T04:05:01.978Z,924.24
2017-02-08T04:05:21.675Z,924.25
2017-02-08T04:05:41.363Z,924.25
2017-02-08T04:06:01.067Z,924.21
2017-02-08T04:06:20.210Z,924.23
2017-02-08T04:06:39.335Z,924.25